sensor_id;sensor_type;location;lat;lon;timestamp;P1;durP1;ratioP1;P2;durP2;ratioP2
23155;SDS011;11746;50.876;4.246;2024-02-15T00:02:16;12.02;;;4.80;;
23155;SDS011;11746;50.876;4.246;2024-02-15T00:04:47;11.48;;;4.75;;
23155;SDS011;11746;50.876;4.246;2024-02-15T00:07:14;11.80;;;4.63;;
23155;SDS011;11746;50.876;4.246;2024-02-15T00:09:40;12.10;;;4.68;;
23155;SDS011;11746;50.876;4.246;2024-02-15T00:12:08;11.98;;;5.28;;
23155;SDS011;11746;50.876;4.246;2024-02-15T00:14:38;14.38;;;5.07;;
23155;SDS011;11746;50.876;4.246;2024-02-15T00:17:04;16.75;;;5.72;;
23155;SDS011;11746;50.876;4.246;2024-02-15T00:19:33;17.00;;;5.50;;
23155;SDS011;11746;50.876;4.246;2024-02-15T00:21:58;12.70;;;5.22;;
23155;SDS011;11746;50.876;4.246;2024-02-15T00:24:24;14.30;;;5.35;;
23155;SDS011;11746;50.876;4.246;2024-02-15T00:26:50;17.88;;;5.65;;
23155;SDS011;11746;50.876;4.246;2024-02-15T00:29:16;19.75;;;5.57;;
23155;SDS011;11746;50.876;4.246;2024-02-15T00:31:45;12.18;;;5.07;;
23155;SDS011;11746;50.876;4.246;2024-02-15T00:34:12;12.05;;;5.40;;
23155;SDS011;11746;50.876;4.246;2024-02-15T00:36:41;15.88;;;5.90;;
23155;SDS011;11746;50.876;4.246;2024-02-15T00:39:08;13.55;;;5.20;;
23155;SDS011;11746;50.876;4.246;2024-02-15T00:41:36;16.73;;;5.30;;
23155;SDS011;11746;50.876;4.246;2024-02-15T00:44:06;11.75;;;4.70;;
23155;SDS011;11746;50.876;4.246;2024-02-15T00:46:33;15.65;;;5.45;;
23155;SDS011;11746;50.876;4.246;2024-02-15T00:49:01;14.95;;;4.65;;
23155;SDS011;11746;50.876;4.246;2024-02-15T00:51:31;13.98;;;5.10;;
23155;SDS011;11746;50.876;4.246;2024-02-15T00:53:58;16.35;;;5.38;;
23155;SDS011;11746;50.876;4.246;2024-02-15T00:56:25;10.07;;;4.15;;
23155;SDS011;11746;50.876;4.246;2024-02-15T00:58:51;15.07;;;4.78;;
23155;SDS011;11746;50.876;4.246;2024-02-15T01:01:16;11.95;;;5.05;;
23155;SDS011;11746;50.876;4.246;2024-02-15T01:03:42;12.68;;;4.50;;
23155;SDS011;11746;50.876;4.246;2024-02-15T01:06:10;11.77;;;4.20;;
23155;SDS011;11746;50.876;4.246;2024-02-15T01:08:38;10.43;;;3.50;;
23155;SDS011;11746;50.876;4.246;2024-02-15T01:11:04;11.77;;;3.72;;
23155;SDS011;11746;50.876;4.246;2024-02-15T01:13:31;9.68;;;3.30;;
23155;SDS011;11746;50.876;4.246;2024-02-15T01:16:04;10.70;;;3.75;;
23155;SDS011;11746;50.876;4.246;2024-02-15T01:18:30;10.07;;;3.67;;
23155;SDS011;11746;50.876;4.246;2024-02-15T01:20:58;7.35;;;3.22;;
23155;SDS011;11746;50.876;4.246;2024-02-15T01:23:24;12.30;;;3.78;;
23155;SDS011;11746;50.876;4.246;2024-02-15T01:25:50;12.05;;;3.30;;
23155;SDS011;11746;50.876;4.246;2024-02-15T01:28:16;8.45;;;2.95;;
23155;SDS011;11746;50.876;4.246;2024-02-15T01:30:42;9.52;;;2.88;;
23155;SDS011;11746;50.876;4.246;2024-02-15T01:33:11;10.32;;;2.92;;
23155;SDS011;11746;50.876;4.246;2024-02-15T01:35:36;10.98;;;3.00;;
23155;SDS011;11746;50.876;4.246;2024-02-15T01:38:03;9.80;;;2.88;;
23155;SDS011;11746;50.876;4.246;2024-02-15T01:40:29;9.73;;;2.80;;
23155;SDS011;11746;50.876;4.246;2024-02-15T01:42:54;11.35;;;2.70;;
23155;SDS011;11746;50.876;4.246;2024-02-15T01:45:22;8.85;;;3.20;;
23155;SDS011;11746;50.876;4.246;2024-02-15T01:47:51;9.32;;;2.40;;
23155;SDS011;11746;50.876;4.246;2024-02-15T01:50:20;9.27;;;2.53;;
23155;SDS011;11746;50.876;4.246;2024-02-15T01:52:47;7.63;;;2.53;;
23155;SDS011;11746;50.876;4.246;2024-02-15T01:55:16;6.57;;;2.42;;
23155;SDS011;11746;50.876;4.246;2024-02-15T01:57:46;7.05;;;2.30;;
23155;SDS011;11746;50.876;4.246;2024-02-15T02:00:13;10.18;;;2.78;;
23155;SDS011;11746;50.876;4.246;2024-02-15T02:02:46;8.65;;;2.65;;
23155;SDS011;11746;50.876;4.246;2024-02-15T02:05:12;10.65;;;3.05;;
23155;SDS011;11746;50.876;4.246;2024-02-15T02:07:38;10.20;;;3.05;;
23155;SDS011;11746;50.876;4.246;2024-02-15T02:10:04;8.35;;;2.70;;
23155;SDS011;11746;50.876;4.246;2024-02-15T02:12:30;10.10;;;2.60;;
23155;SDS011;11746;50.876;4.246;2024-02-15T02:14:56;8.90;;;2.75;;
23155;SDS011;11746;50.876;4.246;2024-02-15T02:17:22;8.32;;;2.78;;
23155;SDS011;11746;50.876;4.246;2024-02-15T02:19:48;9.57;;;2.92;;
23155;SDS011;11746;50.876;4.246;2024-02-15T02:22:18;7.40;;;2.70;;
23155;SDS011;11746;50.876;4.246;2024-02-15T02:27:23;8.77;;;3.30;;
23155;SDS011;11746;50.876;4.246;2024-02-15T02:29:52;15.85;;;3.03;;
23155;SDS011;11746;50.876;4.246;2024-02-15T02:32:18;11.75;;;3.50;;
23155;SDS011;11746;50.876;4.246;2024-02-15T02:34:44;10.10;;;3.10;;
23155;SDS011;11746;50.876;4.246;2024-02-15T02:37:12;7.72;;;2.80;;
23155;SDS011;11746;50.876;4.246;2024-02-15T02:39:38;8.32;;;3.35;;
23155;SDS011;11746;50.876;4.246;2024-02-15T02:42:04;8.88;;;3.08;;
23155;SDS011;11746;50.876;4.246;2024-02-15T02:44:33;8.52;;;2.88;;
23155;SDS011;11746;50.876;4.246;2024-02-15T02:46:59;12.20;;;3.20;;
23155;SDS011;11746;50.876;4.246;2024-02-15T02:49:25;8.40;;;2.83;;
23155;SDS011;11746;50.876;4.246;2024-02-15T02:51:50;8.23;;;3.50;;
23155;SDS011;11746;50.876;4.246;2024-02-15T02:54:16;11.82;;;3.70;;
23155;SDS011;11746;50.876;4.246;2024-02-15T02:56:44;8.98;;;3.58;;
23155;SDS011;11746;50.876;4.246;2024-02-15T02:59:10;8.57;;;3.50;;
23155;SDS011;11746;50.876;4.246;2024-02-15T03:01:41;8.85;;;2.85;;
23155;SDS011;11746;50.876;4.246;2024-02-15T03:04:11;12.50;;;3.50;;
23155;SDS011;11746;50.876;4.246;2024-02-15T03:06:37;8.73;;;3.10;;
23155;SDS011;11746;50.876;4.246;2024-02-15T03:09:05;10.13;;;2.92;;
23155;SDS011;11746;50.876;4.246;2024-02-15T03:11:37;8.50;;;3.10;;
23155;SDS011;11746;50.876;4.246;2024-02-15T03:14:03;8.55;;;2.60;;
23155;SDS011;11746;50.876;4.246;2024-02-15T03:16:31;6.40;;;2.53;;
23155;SDS011;11746;50.876;4.246;2024-02-15T03:19:00;6.72;;;3.08;;
23155;SDS011;11746;50.876;4.246;2024-02-15T03:21:29;6.53;;;2.75;;
23155;SDS011;11746;50.876;4.246;2024-02-15T03:23:55;9.77;;;3.33;;
23155;SDS011;11746;50.876;4.246;2024-02-15T03:26:30;5.68;;;2.72;;
23155;SDS011;11746;50.876;4.246;2024-02-15T03:29:05;9.52;;;2.65;;
23155;SDS011;11746;50.876;4.246;2024-02-15T03:31:37;6.53;;;2.53;;
23155;SDS011;11746;50.876;4.246;2024-02-15T03:34:05;7.32;;;2.70;;
23155;SDS011;11746;50.876;4.246;2024-02-15T03:36:30;9.57;;;3.40;;
23155;SDS011;11746;50.876;4.246;2024-02-15T03:38:59;7.32;;;3.33;;
23155;SDS011;11746;50.876;4.246;2024-02-15T03:41:26;6.47;;;2.92;;
23155;SDS011;11746;50.876;4.246;2024-02-15T03:43:57;9.70;;;3.03;;
23155;SDS011;11746;50.876;4.246;2024-02-15T03:46:25;7.43;;;2.55;;
23155;SDS011;11746;50.876;4.246;2024-02-15T03:48:50;7.97;;;2.90;;
23155;SDS011;11746;50.876;4.246;2024-02-15T03:51:22;7.90;;;3.00;;
23155;SDS011;11746;50.876;4.246;2024-02-15T03:53:49;9.57;;;3.40;;
23155;SDS011;11746;50.876;4.246;2024-02-15T03:56:18;12.68;;;4.00;;
23155;SDS011;11746;50.876;4.246;2024-02-15T03:58:46;11.00;;;3.63;;
23155;SDS011;11746;50.876;4.246;2024-02-15T04:01:15;9.30;;;3.42;;
23155;SDS011;11746;50.876;4.246;2024-02-15T04:03:41;8.82;;;3.40;;
23155;SDS011;11746;50.876;4.246;2024-02-15T04:06:09;10.60;;;3.67;;
23155;SDS011;11746;50.876;4.246;2024-02-15T04:08:36;7.22;;;3.05;;
23155;SDS011;11746;50.876;4.246;2024-02-15T04:11:04;12.45;;;3.88;;
23155;SDS011;11746;50.876;4.246;2024-02-15T04:13:32;14.07;;;4.20;;
23155;SDS011;11746;50.876;4.246;2024-02-15T04:15:58;11.70;;;4.03;;
23155;SDS011;11746;50.876;4.246;2024-02-15T04:18:26;13.15;;;4.10;;
23155;SDS011;11746;50.876;4.246;2024-02-15T04:20:52;8.40;;;3.70;;
23155;SDS011;11746;50.876;4.246;2024-02-15T04:23:22;12.02;;;5.40;;
23155;SDS011;11746;50.876;4.246;2024-02-15T04:25:49;9.57;;;4.55;;
23155;SDS011;11746;50.876;4.246;2024-02-15T04:28:17;15.07;;;4.15;;
23155;SDS011;11746;50.876;4.246;2024-02-15T04:30:42;9.57;;;4.28;;
23155;SDS011;11746;50.876;4.246;2024-02-15T04:33:11;10.98;;;3.45;;
23155;SDS011;11746;50.876;4.246;2024-02-15T04:35:40;10.45;;;3.78;;
23155;SDS011;11746;50.876;4.246;2024-02-15T04:38:06;8.60;;;3.60;;
23155;SDS011;11746;50.876;4.246;2024-02-15T04:40:36;10.40;;;2.83;;
23155;SDS011;11746;50.876;4.246;2024-02-15T04:43:04;11.98;;;3.78;;
23155;SDS011;11746;50.876;4.246;2024-02-15T04:45:30;6.65;;;3.15;;
23155;SDS011;11746;50.876;4.246;2024-02-15T04:47:57;11.80;;;3.70;;
23155;SDS011;11746;50.876;4.246;2024-02-15T04:50:26;10.30;;;3.83;;
23155;SDS011;11746;50.876;4.246;2024-02-15T04:52:54;8.45;;;3.15;;
23155;SDS011;11746;50.876;4.246;2024-02-15T04:55:25;10.65;;;3.58;;
23155;SDS011;11746;50.876;4.246;2024-02-15T04:57:51;10.52;;;3.70;;
23155;SDS011;11746;50.876;4.246;2024-02-15T05:00:19;8.68;;;3.20;;
23155;SDS011;11746;50.876;4.246;2024-02-15T05:02:47;9.38;;;3.40;;
23155;SDS011;11746;50.876;4.246;2024-02-15T05:05:18;13.77;;;3.10;;
23155;SDS011;11746;50.876;4.246;2024-02-15T05:07:46;6.72;;;2.53;;
23155;SDS011;11746;50.876;4.246;2024-02-15T05:10:15;7.53;;;2.50;;
23155;SDS011;11746;50.876;4.246;2024-02-15T05:12:41;6.13;;;2.40;;
23155;SDS011;11746;50.876;4.246;2024-02-15T05:15:15;6.53;;;2.28;;
23155;SDS011;11746;50.876;4.246;2024-02-15T05:17:42;10.20;;;2.42;;
23155;SDS011;11746;50.876;4.246;2024-02-15T05:20:15;8.55;;;2.17;;
23155;SDS011;11746;50.876;4.246;2024-02-15T05:22:41;5.22;;;1.95;;
23155;SDS011;11746;50.876;4.246;2024-02-15T05:25:15;6.28;;;1.98;;
23155;SDS011;11746;50.876;4.246;2024-02-15T05:27:44;5.07;;;1.75;;
23155;SDS011;11746;50.876;4.246;2024-02-15T05:30:11;5.32;;;2.10;;
23155;SDS011;11746;50.876;4.246;2024-02-15T05:32:37;5.45;;;1.58;;
23155;SDS011;11746;50.876;4.246;2024-02-15T05:35:10;5.85;;;1.88;;
23155;SDS011;11746;50.876;4.246;2024-02-15T05:37:37;6.47;;;1.70;;
23155;SDS011;11746;50.876;4.246;2024-02-15T05:40:03;4.00;;;1.55;;
23155;SDS011;11746;50.876;4.246;2024-02-15T05:42:30;4.78;;;1.67;;
23155;SDS011;11746;50.876;4.246;2024-02-15T05:44:58;6.18;;;1.92;;
23155;SDS011;11746;50.876;4.246;2024-02-15T05:47:53;5.45;;;1.40;;
23155;SDS011;11746;50.876;4.246;2024-02-15T05:50:19;4.07;;;1.55;;
23155;SDS011;11746;50.876;4.246;2024-02-15T05:52:51;3.85;;;1.50;;
23155;SDS011;11746;50.876;4.246;2024-02-15T05:55:22;5.32;;;1.40;;
23155;SDS011;11746;50.876;4.246;2024-02-15T05:57:47;6.93;;;1.45;;
23155;SDS011;11746;50.876;4.246;2024-02-15T06:00:13;5.28;;;1.70;;
23155;SDS011;11746;50.876;4.246;2024-02-15T06:02:46;5.15;;;1.73;;
23155;SDS011;11746;50.876;4.246;2024-02-15T06:05:11;5.13;;;1.30;;
23155;SDS011;11746;50.876;4.246;2024-02-15T06:07:41;4.57;;;1.48;;
23155;SDS011;11746;50.876;4.246;2024-02-15T06:10:07;5.97;;;1.67;;
23155;SDS011;11746;50.876;4.246;2024-02-15T06:12:40;5.45;;;1.73;;
23155;SDS011;11746;50.876;4.246;2024-02-15T06:15:11;5.55;;;1.60;;
23155;SDS011;11746;50.876;4.246;2024-02-15T06:17:40;4.53;;;1.40;;
23155;SDS011;11746;50.876;4.246;2024-02-15T06:20:09;6.32;;;1.80;;
23155;SDS011;11746;50.876;4.246;2024-02-15T06:22:39;5.18;;;1.73;;
23155;SDS011;11746;50.876;4.246;2024-02-15T06:25:07;5.15;;;1.60;;
23155;SDS011;11746;50.876;4.246;2024-02-15T06:27:35;6.40;;;1.90;;
23155;SDS011;11746;50.876;4.246;2024-02-15T06:30:06;6.13;;;2.45;;
23155;SDS011;11746;50.876;4.246;2024-02-15T06:32:52;8.10;;;1.83;;
23155;SDS011;11746;50.876;4.246;2024-02-15T06:35:36;6.40;;;1.63;;
23155;SDS011;11746;50.876;4.246;2024-02-15T06:41:05;7.47;;;2.20;;
23155;SDS011;11746;50.876;4.246;2024-02-15T06:43:30;5.25;;;1.50;;
23155;SDS011;11746;50.876;4.246;2024-02-15T06:45:58;4.30;;;1.60;;
23155;SDS011;11746;50.876;4.246;2024-02-15T06:48:23;6.47;;;1.55;;
23155;SDS011;11746;50.876;4.246;2024-02-15T06:50:50;6.97;;;1.45;;
23155;SDS011;11746;50.876;4.246;2024-02-15T06:53:15;4.75;;;1.95;;
23155;SDS011;11746;50.876;4.246;2024-02-15T06:55:42;5.57;;;1.75;;
23155;SDS011;11746;50.876;4.246;2024-02-15T06:58:07;4.93;;;1.50;;
23155;SDS011;11746;50.876;4.246;2024-02-15T07:00:33;8.70;;;2.28;;
23155;SDS011;11746;50.876;4.246;2024-02-15T07:02:59;5.88;;;1.80;;
23155;SDS011;11746;50.876;4.246;2024-02-15T07:05:26;6.55;;;2.10;;
23155;SDS011;11746;50.876;4.246;2024-02-15T07:07:58;4.60;;;1.85;;
23155;SDS011;11746;50.876;4.246;2024-02-15T07:10:24;5.10;;;2.17;;
23155;SDS011;11746;50.876;4.246;2024-02-15T07:12:52;6.35;;;1.92;;
23155;SDS011;11746;50.876;4.246;2024-02-15T07:15:20;4.88;;;2.17;;
23155;SDS011;11746;50.876;4.246;2024-02-15T07:17:48;8.55;;;2.38;;
23155;SDS011;11746;50.876;4.246;2024-02-15T07:20:14;8.55;;;2.80;;
23155;SDS011;11746;50.876;4.246;2024-02-15T07:22:42;6.50;;;2.78;;
23155;SDS011;11746;50.876;4.246;2024-02-15T07:25:10;8.07;;;2.53;;
23155;SDS011;11746;50.876;4.246;2024-02-15T07:27:36;7.70;;;2.35;;
23155;SDS011;11746;50.876;4.246;2024-02-15T07:30:04;6.50;;;2.33;;
23155;SDS011;11746;50.876;4.246;2024-02-15T07:32:33;7.60;;;2.45;;
23155;SDS011;11746;50.876;4.246;2024-02-15T07:35:00;7.97;;;2.08;;
23155;SDS011;11746;50.876;4.246;2024-02-15T07:37:26;6.25;;;2.38;;
23155;SDS011;11746;50.876;4.246;2024-02-15T07:39:54;6.38;;;2.10;;
23155;SDS011;11746;50.876;4.246;2024-02-15T07:42:24;5.40;;;1.70;;
23155;SDS011;11746;50.876;4.246;2024-02-15T07:44:51;4.85;;;1.75;;
23155;SDS011;11746;50.876;4.246;2024-02-15T07:47:19;4.57;;;1.83;;
23155;SDS011;11746;50.876;4.246;2024-02-15T07:49:49;7.95;;;2.00;;
23155;SDS011;11746;50.876;4.246;2024-02-15T07:52:15;5.03;;;1.90;;
23155;SDS011;11746;50.876;4.246;2024-02-15T07:54:44;4.80;;;1.88;;
23155;SDS011;11746;50.876;4.246;2024-02-15T07:57:09;6.28;;;1.70;;
23155;SDS011;11746;50.876;4.246;2024-02-15T07:59:35;4.90;;;1.52;;
23155;SDS011;11746;50.876;4.246;2024-02-15T08:02:04;6.32;;;1.98;;
23155;SDS011;11746;50.876;4.246;2024-02-15T08:04:30;6.55;;;1.90;;
23155;SDS011;11746;50.876;4.246;2024-02-15T08:06:56;5.22;;;1.90;;
23155;SDS011;11746;50.876;4.246;2024-02-15T08:09:22;7.32;;;1.98;;
23155;SDS011;11746;50.876;4.246;2024-02-15T08:11:49;4.50;;;1.92;;
23155;SDS011;11746;50.876;4.246;2024-02-15T08:14:18;7.38;;;2.08;;
23155;SDS011;11746;50.876;4.246;2024-02-15T08:16:45;5.75;;;2.17;;
23155;SDS011;11746;50.876;4.246;2024-02-15T08:19:13;5.00;;;2.17;;
23155;SDS011;11746;50.876;4.246;2024-02-15T08:21:39;6.05;;;2.20;;
23155;SDS011;11746;50.876;4.246;2024-02-15T08:24:07;7.00;;;2.25;;
23155;SDS011;11746;50.876;4.246;2024-02-15T08:26:38;6.15;;;2.45;;
23155;SDS011;11746;50.876;4.246;2024-02-15T08:29:04;6.70;;;2.35;;
23155;SDS011;11746;50.876;4.246;2024-02-15T08:31:34;9.85;;;2.30;;
23155;SDS011;11746;50.876;4.246;2024-02-15T08:34:02;10.13;;;2.20;;
23155;SDS011;11746;50.876;4.246;2024-02-15T08:36:30;4.75;;;1.90;;
23155;SDS011;11746;50.876;4.246;2024-02-15T08:38:59;5.07;;;2.10;;
23155;SDS011;11746;50.876;4.246;2024-02-15T08:41:25;6.50;;;1.88;;
23155;SDS011;11746;50.876;4.246;2024-02-15T08:43:52;7.47;;;2.10;;
23155;SDS011;11746;50.876;4.246;2024-02-15T08:46:23;5.43;;;1.80;;
23155;SDS011;11746;50.876;4.246;2024-02-15T08:48:52;5.40;;;1.67;;
23155;SDS011;11746;50.876;4.246;2024-02-15T08:51:20;6.70;;;1.73;;
23155;SDS011;11746;50.876;4.246;2024-02-15T08:53:46;5.50;;;1.98;;
23155;SDS011;11746;50.876;4.246;2024-02-15T08:56:14;5.65;;;2.00;;
23155;SDS011;11746;50.876;4.246;2024-02-15T08:58:39;7.15;;;2.10;;
23155;SDS011;11746;50.876;4.246;2024-02-15T09:01:06;6.18;;;1.85;;
23155;SDS011;11746;50.876;4.246;2024-02-15T09:03:34;8.23;;;1.80;;
23155;SDS011;11746;50.876;4.246;2024-02-15T09:05:59;6.28;;;1.90;;
23155;SDS011;11746;50.876;4.246;2024-02-15T09:08:28;3.92;;;1.83;;
23155;SDS011;11746;50.876;4.246;2024-02-15T09:10:59;5.28;;;1.75;;
23155;SDS011;11746;50.876;4.246;2024-02-15T09:13:27;4.43;;;2.20;;
23155;SDS011;11746;50.876;4.246;2024-02-15T09:15:58;6.00;;;2.10;;
23155;SDS011;11746;50.876;4.246;2024-02-15T09:18:24;6.25;;;2.10;;
23155;SDS011;11746;50.876;4.246;2024-02-15T09:20:49;6.03;;;2.03;;
23155;SDS011;11746;50.876;4.246;2024-02-15T09:23:20;5.80;;;1.77;;
23155;SDS011;11746;50.876;4.246;2024-02-15T09:25:48;6.72;;;2.42;;
23155;SDS011;11746;50.876;4.246;2024-02-15T09:28:17;6.72;;;2.15;;
23155;SDS011;11746;50.876;4.246;2024-02-15T09:30:49;4.70;;;1.80;;
23155;SDS011;11746;50.876;4.246;2024-02-15T09:33:19;6.28;;;2.15;;
23155;SDS011;11746;50.876;4.246;2024-02-15T09:35:45;4.90;;;2.03;;
23155;SDS011;11746;50.876;4.246;2024-02-15T09:38:11;6.38;;;1.50;;
23155;SDS011;11746;50.876;4.246;2024-02-15T09:40:38;5.45;;;2.38;;
23155;SDS011;11746;50.876;4.246;2024-02-15T09:43:05;5.85;;;2.05;;
23155;SDS011;11746;50.876;4.246;2024-02-15T09:45:31;4.15;;;1.92;;
23155;SDS011;11746;50.876;4.246;2024-02-15T09:48:03;5.47;;;2.15;;
23155;SDS011;11746;50.876;4.246;2024-02-15T09:50:34;7.13;;;1.88;;
23155;SDS011;11746;50.876;4.246;2024-02-15T09:53:01;9.27;;;2.35;;
23155;SDS011;11746;50.876;4.246;2024-02-15T09:55:34;4.47;;;1.73;;
23155;SDS011;11746;50.876;4.246;2024-02-15T09:58:00;4.50;;;1.20;;
23155;SDS011;11746;50.876;4.246;2024-02-15T10:00:30;3.58;;;1.23;;
23155;SDS011;11746;50.876;4.246;2024-02-15T10:03:02;2.97;;;0.95;;
23155;SDS011;11746;50.876;4.246;2024-02-15T10:05:37;3.35;;;1.17;;
23155;SDS011;11746;50.876;4.246;2024-02-15T10:08:04;4.63;;;1.33;;
23155;SDS011;11746;50.876;4.246;2024-02-15T10:10:32;4.93;;;1.45;;
23155;SDS011;11746;50.876;4.246;2024-02-15T10:13:00;5.65;;;1.63;;
23155;SDS011;11746;50.876;4.246;2024-02-15T10:15:26;5.32;;;1.50;;
23155;SDS011;11746;50.876;4.246;2024-02-15T10:17:56;3.95;;;1.30;;
23155;SDS011;11746;50.876;4.246;2024-02-15T10:20:26;3.92;;;1.35;;
23155;SDS011;11746;50.876;4.246;2024-02-15T10:25:25;7.05;;;1.50;;
23155;SDS011;11746;50.876;4.246;2024-02-15T10:28:05;3.55;;;1.42;;
23155;SDS011;11746;50.876;4.246;2024-02-15T10:30:32;2.83;;;1.25;;
23155;SDS011;11746;50.876;4.246;2024-02-15T10:33:02;4.03;;;1.63;;
23155;SDS011;11746;50.876;4.246;2024-02-15T10:35:31;3.35;;;1.30;;
23155;SDS011;11746;50.876;4.246;2024-02-15T10:38:04;3.03;;;1.15;;
23155;SDS011;11746;50.876;4.246;2024-02-15T10:40:32;4.10;;;1.48;;
23155;SDS011;11746;50.876;4.246;2024-02-15T10:43:00;6.80;;;1.48;;
23155;SDS011;11746;50.876;4.246;2024-02-15T10:45:30;4.88;;;1.10;;
23155;SDS011;11746;50.876;4.246;2024-02-15T10:48:02;1.80;;;1.15;;
23155;SDS011;11746;50.876;4.246;2024-02-15T10:50:31;5.82;;;1.42;;
23155;SDS011;11746;50.876;4.246;2024-02-15T10:52:57;6.15;;;1.55;;
23155;SDS011;11746;50.876;4.246;2024-02-15T10:55:46;4.97;;;1.42;;
23155;SDS011;11746;50.876;4.246;2024-02-15T10:58:19;2.60;;;1.17;;
23155;SDS011;11746;50.876;4.246;2024-02-15T11:00:47;2.65;;;1.20;;
23155;SDS011;11746;50.876;4.246;2024-02-15T11:03:25;4.75;;;1.40;;
23155;SDS011;11746;50.876;4.246;2024-02-15T11:06:06;2.95;;;1.27;;
23155;SDS011;11746;50.876;4.246;2024-02-15T11:08:35;6.32;;;1.38;;
23155;SDS011;11746;50.876;4.246;2024-02-15T11:11:01;5.80;;;1.63;;
23155;SDS011;11746;50.876;4.246;2024-02-15T11:13:29;5.07;;;1.25;;
23155;SDS011;11746;50.876;4.246;2024-02-15T11:15:55;4.88;;;1.13;;
23155;SDS011;11746;50.876;4.246;2024-02-15T11:21:17;7.20;;;1.00;;
23155;SDS011;11746;50.876;4.246;2024-02-15T11:23:43;3.10;;;1.10;;
23155;SDS011;11746;50.876;4.246;2024-02-15T11:26:13;2.95;;;0.98;;
23155;SDS011;11746;50.876;4.246;2024-02-15T11:43:07;2.70;;;0.80;;
23155;SDS011;11746;50.876;4.246;2024-02-15T11:45:37;2.08;;;0.88;;
23155;SDS011;11746;50.876;4.246;2024-02-15T11:48:09;1.58;;;0.85;;
23155;SDS011;11746;50.876;4.246;2024-02-15T11:50:39;4.22;;;0.82;;
23155;SDS011;11746;50.876;4.246;2024-02-15T11:53:08;4.30;;;1.02;;
23155;SDS011;11746;50.876;4.246;2024-02-15T11:55:34;5.00;;;1.13;;
23155;SDS011;11746;50.876;4.246;2024-02-15T11:58:05;4.93;;;1.02;;
23155;SDS011;11746;50.876;4.246;2024-02-15T12:00:35;2.83;;;1.00;;
23155;SDS011;11746;50.876;4.246;2024-02-15T12:03:21;3.55;;;1.00;;
23155;SDS011;11746;50.876;4.246;2024-02-15T12:06:06;3.08;;;1.05;;
23155;SDS011;11746;50.876;4.246;2024-02-15T12:08:54;4.43;;;0.80;;
23155;SDS011;11746;50.876;4.246;2024-02-15T12:11:38;3.25;;;0.90;;
23155;SDS011;11746;50.876;4.246;2024-02-15T12:17:11;4.20;;;0.95;;
23155;SDS011;11746;50.876;4.246;2024-02-15T12:19:59;2.50;;;0.90;;
23155;SDS011;11746;50.876;4.246;2024-02-15T12:22:35;6.38;;;1.98;;
23155;SDS011;11746;50.876;4.246;2024-02-15T12:25:15;3.55;;;1.38;;
23155;SDS011;11746;50.876;4.246;2024-02-15T12:27:44;2.97;;;1.00;;
23155;SDS011;11746;50.876;4.246;2024-02-15T12:30:17;3.47;;;1.20;;
23155;SDS011;11746;50.876;4.246;2024-02-15T12:32:49;3.40;;;1.17;;
23155;SDS011;11746;50.876;4.246;2024-02-15T12:35:21;2.58;;;0.88;;
23155;SDS011;11746;50.876;4.246;2024-02-15T12:40:30;3.88;;;1.00;;
23155;SDS011;11746;50.876;4.246;2024-02-15T12:42:56;3.50;;;0.95;;
23155;SDS011;11746;50.876;4.246;2024-02-15T12:45:24;3.67;;;0.90;;
23155;SDS011;11746;50.876;4.246;2024-02-15T12:47:54;3.30;;;0.70;;
23155;SDS011;11746;50.876;4.246;2024-02-15T12:50:21;5.28;;;1.23;;
23155;SDS011;11746;50.876;4.246;2024-02-15T12:52:51;2.67;;;0.80;;
23155;SDS011;11746;50.876;4.246;2024-02-15T12:55:22;7.20;;;1.00;;
23155;SDS011;11746;50.876;4.246;2024-02-15T12:57:50;2.40;;;0.90;;
23155;SDS011;11746;50.876;4.246;2024-02-15T13:02:49;3.20;;;0.90;;
23155;SDS011;11746;50.876;4.246;2024-02-15T13:05:21;4.00;;;1.05;;
23155;SDS011;11746;50.876;4.246;2024-02-15T13:07:51;3.38;;;1.08;;
23155;SDS011;11746;50.876;4.246;2024-02-15T13:10:21;4.60;;;1.02;;
23155;SDS011;11746;50.876;4.246;2024-02-15T13:12:47;2.63;;;1.00;;
23155;SDS011;11746;50.876;4.246;2024-02-15T13:15:14;3.25;;;1.13;;
23155;SDS011;11746;50.876;4.246;2024-02-15T13:17:44;6.53;;;1.08;;
23155;SDS011;11746;50.876;4.246;2024-02-15T13:20:12;3.25;;;1.13;;
23155;SDS011;11746;50.876;4.246;2024-02-15T13:22:42;4.55;;;1.30;;
23155;SDS011;11746;50.876;4.246;2024-02-15T13:25:09;3.17;;;1.30;;
23155;SDS011;11746;50.876;4.246;2024-02-15T13:27:35;5.47;;;2.10;;
23155;SDS011;11746;50.876;4.246;2024-02-15T13:30:03;3.60;;;1.80;;
23155;SDS011;11746;50.876;4.246;2024-02-15T13:32:33;6.57;;;2.10;;
23155;SDS011;11746;50.876;4.246;2024-02-15T13:35:02;8.30;;;1.75;;
23155;SDS011;11746;50.876;4.246;2024-02-15T13:37:40;10.35;;;2.10;;
23155;SDS011;11746;50.876;4.246;2024-02-15T13:40:14;9.60;;;1.80;;
23155;SDS011;11746;50.876;4.246;2024-02-15T13:42:46;5.32;;;1.83;;
23155;SDS011;11746;50.876;4.246;2024-02-15T13:45:20;6.40;;;1.70;;
23155;SDS011;11746;50.876;4.246;2024-02-15T13:47:52;3.40;;;1.45;;
23155;SDS011;11746;50.876;4.246;2024-02-15T13:50:18;6.57;;;1.55;;
23155;SDS011;11746;50.876;4.246;2024-02-15T13:52:48;5.10;;;1.83;;
23155;SDS011;11746;50.876;4.246;2024-02-15T13:55:19;2.25;;;1.20;;
23155;SDS011;11746;50.876;4.246;2024-02-15T13:57:45;3.05;;;1.15;;
23155;SDS011;11746;50.876;4.246;2024-02-15T14:00:12;3.85;;;1.05;;
23155;SDS011;11746;50.876;4.246;2024-02-15T14:02:54;4.65;;;1.13;;
23155;SDS011;11746;50.876;4.246;2024-02-15T14:05:23;3.40;;;1.40;;
23155;SDS011;11746;50.876;4.246;2024-02-15T14:07:51;6.85;;;1.20;;
23155;SDS011;11746;50.876;4.246;2024-02-15T14:10:21;8.20;;;1.00;;
23155;SDS011;11746;50.876;4.246;2024-02-15T14:12:51;2.38;;;1.10;;
23155;SDS011;11746;50.876;4.246;2024-02-15T14:15:26;6.03;;;0.90;;
23155;SDS011;11746;50.876;4.246;2024-02-15T14:17:52;4.07;;;1.02;;
23155;SDS011;11746;50.876;4.246;2024-02-15T14:20:18;3.67;;;1.00;;
23155;SDS011;11746;50.876;4.246;2024-02-15T14:22:46;5.68;;;1.13;;
23155;SDS011;11746;50.876;4.246;2024-02-15T14:25:22;4.95;;;1.10;;
23155;SDS011;11746;50.876;4.246;2024-02-15T14:27:49;3.78;;;1.30;;
23155;SDS011;11746;50.876;4.246;2024-02-15T14:30:17;2.63;;;1.00;;
23155;SDS011;11746;50.876;4.246;2024-02-15T14:33:01;4.88;;;1.10;;
23155;SDS011;11746;50.876;4.246;2024-02-15T14:35:33;9.85;;;1.45;;
23155;SDS011;11746;50.876;4.246;2024-02-15T14:38:03;3.40;;;1.05;;
23155;SDS011;11746;50.876;4.246;2024-02-15T14:40:38;4.60;;;1.33;;
23155;SDS011;11746;50.876;4.246;2024-02-15T14:43:09;2.60;;;0.95;;
23155;SDS011;11746;50.876;4.246;2024-02-15T14:45:39;4.18;;;0.95;;
23155;SDS011;11746;50.876;4.246;2024-02-15T14:48:08;3.45;;;1.00;;
23155;SDS011;11746;50.876;4.246;2024-02-15T14:50:38;5.82;;;1.13;;
23155;SDS011;11746;50.876;4.246;2024-02-15T14:53:04;5.07;;;1.20;;
23155;SDS011;11746;50.876;4.246;2024-02-15T14:55:33;3.78;;;1.00;;
23155;SDS011;11746;50.876;4.246;2024-02-15T14:57:59;2.58;;;0.90;;
23155;SDS011;11746;50.876;4.246;2024-02-15T15:00:30;5.13;;;1.30;;
23155;SDS011;11746;50.876;4.246;2024-02-15T15:02:58;1.65;;;0.90;;
23155;SDS011;11746;50.876;4.246;2024-02-15T15:05:23;4.35;;;1.25;;
23155;SDS011;11746;50.876;4.246;2024-02-15T15:08:07;5.03;;;0.98;;
23155;SDS011;11746;50.876;4.246;2024-02-15T15:10:52;3.72;;;1.33;;
23155;SDS011;11746;50.876;4.246;2024-02-15T15:13:36;3.13;;;1.70;;
23155;SDS011;11746;50.876;4.246;2024-02-15T15:16:05;8.48;;;1.75;;
23155;SDS011;11746;50.876;4.246;2024-02-15T15:18:32;3.15;;;1.40;;
23155;SDS011;11746;50.876;4.246;2024-02-15T15:21:03;4.82;;;1.45;;
23155;SDS011;11746;50.876;4.246;2024-02-15T15:23:31;5.30;;;1.10;;
23155;SDS011;11746;50.876;4.246;2024-02-15T15:25:57;7.75;;;1.52;;
23155;SDS011;11746;50.876;4.246;2024-02-15T15:28:23;4.35;;;1.40;;
23155;SDS011;11746;50.876;4.246;2024-02-15T15:30:49;4.38;;;1.15;;